createdAt,value
2023-10-23T00:01:37.476Z,94.96
2023-10-23T00:04:04.465Z,95.17
2023-10-23T00:06:32.768Z,94.77
2023-10-23T00:08:59.576Z,94.79
2023-10-23T00:11:27.407Z,95.15
2023-10-23T00:13:55.529Z,95.17
2023-10-23T00:16:23.112Z,95.30
2023-10-23T00:18:50.155Z,95.53
2023-10-23T00:21:17.793Z,95.41
2023-10-23T00:23:45.775Z,95.22
2023-10-23T00:26:12.398Z,95.38
2023-10-23T00:28:39.248Z,95.45
2023-10-23T00:31:05.967Z,95.48
2023-10-23T00:33:32.938Z,95.69
2023-10-23T00:36:00.512Z,95.50
2023-10-23T00:38:27.128Z,95.81
2023-10-23T00:40:55.131Z,95.55
2023-10-23T00:43:23.056Z,95.24
2023-10-23T00:45:51.897Z,95.35
2023-10-23T00:48:21.102Z,95.59
2023-10-23T00:50:47.940Z,95.49
2023-10-23T00:53:15.339Z,95.70
2023-10-23T00:55:42.287Z,95.73
2023-10-23T00:58:10.411Z,95.77
2023-10-23T01:00:37.256Z,95.95
2023-10-23T01:03:04.837Z,95.85
2023-10-23T01:05:32.646Z,95.43
2023-10-23T01:07:59.338Z,95.47
2023-10-23T01:10:25.975Z,95.87
2023-10-23T01:12:53.971Z,95.79
2023-10-23T01:15:22.040Z,95.80
2023-10-23T01:17:48.812Z,95.66
2023-10-23T01:20:16.418Z,95.59
2023-10-23T01:22:42.881Z,95.89
2023-10-23T01:25:13.309Z,95.66
2023-10-23T01:27:40.002Z,96.04
2023-10-23T01:30:08.071Z,95.81
2023-10-23T01:32:34.763Z,95.82
2023-10-23T01:35:01.522Z,95.80
2023-10-23T01:37:28.258Z,95.89
2023-10-23T01:39:54.931Z,96.03
2023-10-23T01:42:23.011Z,96.06
2023-10-23T01:44:49.638Z,95.93
2023-10-23T01:47:16.271Z,96.47
2023-10-23T01:49:42.930Z,96.29
2023-10-23T01:52:09.590Z,96.24
2023-10-23T01:54:36.296Z,95.89
2023-10-23T01:57:03.389Z,96.18
2023-10-23T01:59:31.463Z,95.78
2023-10-23T02:01:58.112Z,95.74
2023-10-23T02:04:24.873Z,95.96
2023-10-23T02:06:51.578Z,95.92
2023-10-23T02:09:18.332Z,95.67
2023-10-23T02:11:45.836Z,95.87
2023-10-23T02:14:12.542Z,95.88
2023-10-23T02:16:40.645Z,95.62
2023-10-23T02:19:07.426Z,95.80
2023-10-23T02:21:34.179Z,95.71
2023-10-23T02:24:00.815Z,95.99
2023-10-23T02:26:29.029Z,95.92
2023-10-23T02:28:55.679Z,95.60
2023-10-23T02:31:22.496Z,95.69
2023-10-23T02:33:50.584Z,95.53
2023-10-23T02:36:17.327Z,95.83
2023-10-23T02:38:44.162Z,95.80
2023-10-23T02:41:12.377Z,95.97
2023-10-23T02:43:39.055Z,96.04
2023-10-23T02:46:05.813Z,95.67
2023-10-23T02:48:33.102Z,95.65
2023-10-23T02:51:03.933Z,95.84
2023-10-23T02:53:31.147Z,95.21
2023-10-23T02:56:00.306Z,95.36
2023-10-23T02:58:26.969Z,95.46
2023-10-23T03:00:53.674Z,95.56
2023-10-23T03:03:20.509Z,95.42
2023-10-23T03:05:47.682Z,95.77
2023-10-23T03:08:15.714Z,95.89
2023-10-23T03:10:43.952Z,95.47
2023-10-23T03:13:10.614Z,95.84
2023-10-23T03:15:38.123Z,96.00
2023-10-23T03:18:06.641Z,95.37
2023-10-23T03:20:33.385Z,95.40
2023-10-23T03:23:00.040Z,95.83
2023-10-23T03:25:28.081Z,95.99
2023-10-23T03:27:54.778Z,96.18
2023-10-23T03:30:21.728Z,95.83
2023-10-23T03:32:48.779Z,95.79
2023-10-23T03:35:15.512Z,95.60
2023-10-23T03:37:42.182Z,95.25
2023-10-23T03:40:10.316Z,95.80
2023-10-23T03:42:38.444Z,95.75
2023-10-23T03:45:05.644Z,95.39
2023-10-23T03:47:32.498Z,94.97
2023-10-23T03:49:59.143Z,94.61
2023-10-23T03:52:25.874Z,95.04
2023-10-23T03:54:52.515Z,95.27
2023-10-23T03:57:19.221Z,95.54
2023-10-23T03:59:47.234Z,95.12
2023-10-23T04:02:13.905Z,95.49
2023-10-23T04:04:40.657Z,95.26
2023-10-23T04:07:07.308Z,95.61
2023-10-23T04:09:33.954Z,95.24
2023-10-23T04:12:00.549Z,95.15
2023-10-23T04:14:27.144Z,94.77
2023-10-23T04:16:56.040Z,95.26
2023-10-23T04:19:22.672Z,95.28
2023-10-23T04:21:49.357Z,95.22
2023-10-23T04:24:16.061Z,95.18
2023-10-23T04:26:42.697Z,95.42
2023-10-23T04:29:09.339Z,94.63
2023-10-23T04:31:36.048Z,94.46
2023-10-23T04:34:04.513Z,95.32
2023-10-23T04:36:31.148Z,94.91
2023-10-23T04:38:57.819Z,94.87
2023-10-23T04:41:24.443Z,95.16
2023-10-23T04:43:51.086Z,95.13
2023-10-23T04:46:17.831Z,95.25
2023-10-23T04:48:44.553Z,95.57
2023-10-23T04:51:12.564Z,95.34
2023-10-23T04:53:40.112Z,95.33
2023-10-23T04:56:07.390Z,94.61
2023-10-23T04:58:34.118Z,94.52
2023-10-23T05:01:00.897Z,94.94
2023-10-23T05:03:27.733Z,95.72
2023-10-23T05:05:54.439Z,95.10
2023-10-23T05:08:23.257Z,95.91
2023-10-23T05:10:49.870Z,95.74
2023-10-23T05:13:16.513Z,95.00
2023-10-23T05:15:43.254Z,95.17
2023-10-23T05:18:09.892Z,94.21
2023-10-23T05:20:36.534Z,94.71
2023-10-23T05:23:03.258Z,95.12
2023-10-23T05:25:31.305Z,94.83
2023-10-23T05:27:57.961Z,95.14
2023-10-23T05:30:24.664Z,94.76
2023-10-23T05:32:51.339Z,95.30
2023-10-23T05:35:18.042Z,95.65
2023-10-23T05:37:44.689Z,95.34
2023-10-23T05:40:12.389Z,94.85
2023-10-23T05:42:41.945Z,94.99
2023-10-23T05:45:10.889Z,95.27
2023-10-23T05:47:37.609Z,95.13
2023-10-23T05:50:04.950Z,95.29
2023-10-23T05:52:31.461Z,95.55
2023-10-23T05:54:59.262Z,95.58
2023-10-23T05:57:27.088Z,95.45
2023-10-23T05:59:55.103Z,95.62
2023-10-23T06:02:21.715Z,95.56
2023-10-23T06:04:48.586Z,95.31
2023-10-23T06:07:15.292Z,95.19
2023-10-23T06:09:42.338Z,95.30
2023-10-23T06:12:09.471Z,95.62
2023-10-23T06:14:36.149Z,95.43
2023-10-23T06:17:13.742Z,95.51
2023-10-23T06:19:40.569Z,95.53
2023-10-23T06:22:14.487Z,95.63
2023-10-23T06:24:41.124Z,95.35
2023-10-23T06:27:09.439Z,95.69
2023-10-23T06:29:36.191Z,95.62
2023-10-23T06:32:04.071Z,95.50
2023-10-23T06:34:32.189Z,95.14
2023-10-23T06:36:58.753Z,95.48
2023-10-23T06:39:27.119Z,95.24
2023-10-23T06:41:53.730Z,95.10
2023-10-23T06:44:20.330Z,95.85
2023-10-23T06:46:47.006Z,95.54
2023-10-23T06:49:13.724Z,95.50
2023-10-23T06:51:41.712Z,95.46
2023-10-23T06:54:08.385Z,95.07
2023-10-23T06:56:36.511Z,95.49
2023-10-23T06:59:03.255Z,95.29
2023-10-23T07:01:41.684Z,95.24
2023-10-23T07:04:10.980Z,94.63
2023-10-23T07:09:20.551Z,95.08
2023-10-23T07:11:48.241Z,94.84
2023-10-23T07:14:15.170Z,94.57
2023-10-23T07:16:41.961Z,94.55
2023-10-23T07:19:08.833Z,94.60
2023-10-23T07:21:35.538Z,94.71
2023-10-23T07:24:02.251Z,94.56
2023-10-23T07:26:30.839Z,94.27
2023-10-23T07:28:57.884Z,94.15
2023-10-23T07:31:24.623Z,94.02
2023-10-23T07:33:51.280Z,93.70
2023-10-23T07:36:17.963Z,94.05
2023-10-23T07:38:46.214Z,93.51
2023-10-23T07:41:14.194Z,93.70
2023-10-23T07:43:43.193Z,93.58
2023-10-23T07:46:16.525Z,93.02
2023-10-23T07:48:44.906Z,92.89
2023-10-23T07:51:11.599Z,93.00
2023-10-23T07:53:38.317Z,93.08
2023-10-23T07:56:06.187Z,92.92
2023-10-23T07:58:34.689Z,92.79
2023-10-23T08:01:07.012Z,92.84
2023-10-23T08:03:34.392Z,92.63
2023-10-23T08:06:01.301Z,92.50
2023-10-23T08:08:28.019Z,92.07
2023-10-23T08:10:54.761Z,91.49
2023-10-23T08:13:21.440Z,91.31
2023-10-23T08:15:49.053Z,91.36
2023-10-23T08:18:29.981Z,91.07
2023-10-23T08:21:01.009Z,90.88
2023-10-23T08:23:27.624Z,90.47
2023-10-23T08:25:54.214Z,90.89
2023-10-23T08:28:20.875Z,90.40
2023-10-23T08:30:47.591Z,90.37
2023-10-23T08:33:14.327Z,90.56
2023-10-23T08:35:42.390Z,90.05
2023-10-23T08:38:09.084Z,89.98
2023-10-23T08:40:36.048Z,90.51
2023-10-23T08:43:02.748Z,90.70
2023-10-23T08:45:29.601Z,90.21
2023-10-23T08:47:56.303Z,90.23
2023-10-23T08:50:22.988Z,90.44
2023-10-23T08:53:00.808Z,90.39
2023-10-23T08:55:29.138Z,90.10
2023-10-23T08:57:55.978Z,90.00
2023-10-23T09:00:22.955Z,90.02
2023-10-23T09:02:52.362Z,89.63
2023-10-23T09:05:22.197Z,89.08
2023-10-23T09:07:49.222Z,89.28
2023-10-23T09:10:17.239Z,88.92
2023-10-23T09:12:43.919Z,88.64
2023-10-23T09:15:15.429Z,88.14
2023-10-23T09:17:42.181Z,88.14
2023-10-23T09:20:23.141Z,87.58
2023-10-23T09:22:51.583Z,88.04
2023-10-23T09:25:20.500Z,88.23
2023-10-23T09:27:47.993Z,87.34
2023-10-23T09:30:15.382Z,87.72
2023-10-23T09:32:41.844Z,86.91
2023-10-23T09:35:09.355Z,86.46
2023-10-23T09:37:36.884Z,86.67
2023-10-23T09:40:07.295Z,86.86
2023-10-23T09:42:37.021Z,86.43
2023-10-23T09:45:04.811Z,87.33
2023-10-23T09:47:32.272Z,86.57
2023-10-23T09:49:59.407Z,86.03
2023-10-23T09:52:27.863Z,85.35
2023-10-23T09:55:01.519Z,85.42
2023-10-23T09:57:31.930Z,85.40
2023-10-23T10:00:01.543Z,85.31
2023-10-23T10:02:30.777Z,85.88
2023-10-23T10:05:01.537Z,85.24
2023-10-23T10:07:32.982Z,86.27
2023-10-23T10:10:01.453Z,85.45
2023-10-23T10:12:29.257Z,85.13
2023-10-23T10:14:57.062Z,84.59
2023-10-23T10:17:27.898Z,83.81
2023-10-23T10:20:04.536Z,84.10
2023-10-23T10:22:43.113Z,84.33
2023-10-23T10:25:21.448Z,83.83
2023-10-23T10:38:42.927Z,82.52
2023-10-23T10:41:15.848Z,82.05
2023-10-23T10:43:44.565Z,82.48
2023-10-23T10:51:32.589Z,80.95
2023-10-23T10:54:02.289Z,81.16
2023-10-23T10:56:29.024Z,80.95
2023-10-23T10:58:55.770Z,81.01
2023-10-23T11:01:22.573Z,81.43
2023-10-23T11:03:49.483Z,80.76
2023-10-23T11:06:17.200Z,80.45
2023-10-23T11:08:43.896Z,80.20
2023-10-23T11:11:12.062Z,80.38
2023-10-23T11:13:38.892Z,79.85
2023-10-23T11:16:06.104Z,80.33
2023-10-23T11:18:33.164Z,79.69
2023-10-23T11:21:00.463Z,78.65
2023-10-23T11:23:28.950Z,79.27
2023-10-23T11:25:55.913Z,78.92
2023-10-23T11:28:24.610Z,78.87
2023-10-23T11:30:57.001Z,78.85
2023-10-23T11:33:23.888Z,78.00
2023-10-23T11:35:51.452Z,79.00
2023-10-23T11:38:20.619Z,78.62
2023-10-23T11:40:47.874Z,78.08
2023-10-23T11:43:15.522Z,77.31
2023-10-23T11:45:45.031Z,77.44
2023-10-23T11:48:12.536Z,78.44
2023-10-23T11:50:40.407Z,78.16
2023-10-23T11:53:07.247Z,78.02
2023-10-23T11:55:34.858Z,77.90
2023-10-23T11:58:03.133Z,77.59
2023-10-23T12:00:32.333Z,77.55
2023-10-23T12:03:00.468Z,78.21
2023-10-23T12:05:27.206Z,77.35
2023-10-23T12:07:55.703Z,77.38
2023-10-23T12:10:23.478Z,77.73
2023-10-23T12:12:50.218Z,78.04
2023-10-23T12:15:16.893Z,76.98
2023-10-23T12:17:43.683Z,77.54
2023-10-23T12:20:12.663Z,77.13
2023-10-23T12:22:41.066Z,77.13
2023-10-23T12:25:08.878Z,76.76
2023-10-23T12:27:36.385Z,77.55
2023-10-23T12:30:09.402Z,77.56
2023-10-23T12:33:16.720Z,77.52
2023-10-23T12:35:24.960Z,76.61
2023-10-23T12:37:51.707Z,76.60
2023-10-23T12:40:18.599Z,76.07
2023-10-23T12:42:46.105Z,75.88
2023-10-23T12:45:12.926Z,76.10
2023-10-23T12:47:39.565Z,76.22
2023-10-23T12:50:06.919Z,76.32
2023-10-23T12:52:35.112Z,75.67
2023-10-23T12:55:01.818Z,76.80
2023-10-23T12:57:29.271Z,76.40
2023-10-23T12:59:55.894Z,76.69
2023-10-23T13:02:22.542Z,76.50
2023-10-23T13:04:50.095Z,76.14
2023-10-23T13:07:17.152Z,76.00
2023-10-23T13:09:48.035Z,75.84
2023-10-23T13:12:15.500Z,75.85
2023-10-23T13:14:42.155Z,75.62
2023-10-23T13:17:09.269Z,75.38
2023-10-23T13:19:35.996Z,75.52
2023-10-23T13:22:02.599Z,75.67
2023-10-23T13:24:39.322Z,75.19
2023-10-23T13:27:14.794Z,75.93
2023-10-23T13:29:41.633Z,76.49
2023-10-23T13:32:08.491Z,75.37
2023-10-23T13:34:35.185Z,74.93
2023-10-23T13:37:28.494Z,75.05
2023-10-23T13:39:55.134Z,74.49
2023-10-23T13:42:30.120Z,74.20
2023-10-23T13:44:56.721Z,74.40
2023-10-23T13:49:48.542Z,75.10
2023-10-23T13:52:15.268Z,75.24
2023-10-23T13:54:41.891Z,75.71
2023-10-23T13:57:08.572Z,75.80
2023-10-23T13:59:36.572Z,76.67
2023-10-23T14:02:03.512Z,76.46
2023-10-23T14:04:30.196Z,75.82
2023-10-23T14:06:56.944Z,76.98
2023-10-23T14:09:43.377Z,76.99
2023-10-23T14:12:10.238Z,76.58
2023-10-23T14:14:38.457Z,76.32
2023-10-23T14:17:05.681Z,76.85
2023-10-23T14:19:45.601Z,76.51
2023-10-23T14:22:17.811Z,76.59
2023-10-23T14:24:44.593Z,75.94
2023-10-23T14:27:19.018Z,75.97
2023-10-23T14:29:47.068Z,76.65
2023-10-23T14:32:15.509Z,77.45
2023-10-23T14:34:42.181Z,77.28
2023-10-23T14:37:09.864Z,77.20
2023-10-23T14:39:40.552Z,78.03
2023-10-23T14:42:09.442Z,77.74
2023-10-23T14:44:37.696Z,77.26
2023-10-23T14:47:06.287Z,78.36
2023-10-23T14:49:33.037Z,77.95
2023-10-23T14:51:59.730Z,77.28
2023-10-23T14:54:26.306Z,77.42
2023-10-23T14:56:52.910Z,77.86
2023-10-23T14:59:19.551Z,77.52
2023-10-23T15:01:46.377Z,77.09
2023-10-23T15:04:14.632Z,77.78
2023-10-23T15:06:42.452Z,77.96
2023-10-23T15:09:09.110Z,77.98
2023-10-23T15:11:35.729Z,78.55
2023-10-23T15:14:02.400Z,78.79
2023-10-23T15:16:31.106Z,78.64
2023-10-23T15:18:58.626Z,79.13
2023-10-23T15:21:26.702Z,79.38
2023-10-23T15:23:53.031Z,79.65
2023-10-23T15:26:19.702Z,80.12
2023-10-23T15:28:48.016Z,80.11
2023-10-23T15:31:14.710Z,80.84
2023-10-23T15:33:41.559Z,80.41
2023-10-23T15:36:08.342Z,81.09
2023-10-23T15:38:36.809Z,81.20
2023-10-23T15:41:05.434Z,82.24
2023-10-23T15:43:33.851Z,82.33
2023-10-23T15:46:00.622Z,82.80
2023-10-23T15:48:27.280Z,84.00
2023-10-23T15:50:59.640Z,84.07
2023-10-23T15:53:27.204Z,84.75
2023-10-23T15:55:55.726Z,85.67
2023-10-23T15:58:22.531Z,86.20
2023-10-23T16:00:49.425Z,87.14
2023-10-23T16:03:16.315Z,87.71
2023-10-23T16:05:43.100Z,88.60
2023-10-23T16:08:09.872Z,88.74
2023-10-23T16:10:36.700Z,89.18
2023-10-23T16:13:05.655Z,89.74
2023-10-23T16:15:32.249Z,90.64
2023-10-23T16:17:59.142Z,90.99
2023-10-23T16:20:26.659Z,91.30
2023-10-23T16:22:53.328Z,91.86
2023-10-23T16:25:20.243Z,91.65
2023-10-23T16:27:46.899Z,91.99
2023-10-23T16:30:15.162Z,92.14
2023-10-23T16:32:41.817Z,92.10
2023-10-23T16:35:09.905Z,92.25
2023-10-23T16:37:36.929Z,93.11
2023-10-23T16:40:03.960Z,92.95
2023-10-23T16:42:31.961Z,93.24
2023-10-23T16:44:58.801Z,93.33
2023-10-23T16:47:31.059Z,93.30
2023-10-23T16:49:57.818Z,93.48
2023-10-23T16:52:24.446Z,93.41
2023-10-23T16:54:51.148Z,93.44
2023-10-23T16:57:19.830Z,93.23
2023-10-23T16:59:47.163Z,93.49
2023-10-23T17:02:13.932Z,93.65
2023-10-23T17:04:41.988Z,94.11
2023-10-23T17:07:09.162Z,94.01
2023-10-23T17:09:35.649Z,94.19
2023-10-23T17:12:03.066Z,94.35
2023-10-23T17:14:29.684Z,94.43
2023-10-23T17:17:00.363Z,94.36
2023-10-23T17:19:27.034Z,93.94
2023-10-23T17:21:55.076Z,93.67
2023-10-23T17:24:21.725Z,94.05
2023-10-23T17:26:48.384Z,94.13
2023-10-23T17:29:15.255Z,94.49
2023-10-23T17:31:42.014Z,94.62
2023-10-23T17:34:11.866Z,93.51
2023-10-23T17:36:38.534Z,93.78
2023-10-23T17:39:06.613Z,93.83
2023-10-23T17:41:33.261Z,93.89
2023-10-23T17:43:59.892Z,94.20
2023-10-23T17:46:26.652Z,93.61
2023-10-23T17:48:53.472Z,93.67
2023-10-23T17:51:20.077Z,94.17
2023-10-23T17:54:02.204Z,93.80
2023-10-23T17:56:37.224Z,94.02
2023-10-23T17:59:04.526Z,94.22
2023-10-23T18:01:31.392Z,93.76
2023-10-23T18:03:58.425Z,94.03
2023-10-23T18:06:25.667Z,93.97
2023-10-23T18:08:52.345Z,93.70
2023-10-23T18:11:18.991Z,93.70
2023-10-23T18:13:46.998Z,93.59
2023-10-23T18:16:13.768Z,93.70
2023-10-23T18:18:42.507Z,93.22
2023-10-23T18:21:09.147Z,93.63
2023-10-23T18:23:35.791Z,93.34
2023-10-23T18:26:02.583Z,93.64
2023-10-23T18:28:29.709Z,93.98
2023-10-23T18:30:58.899Z,93.12
2023-10-23T18:33:25.639Z,93.03
2023-10-23T18:35:52.288Z,93.18
2023-10-23T18:38:19.074Z,93.06
2023-10-23T18:40:47.405Z,92.93
2023-10-23T18:43:14.156Z,92.87
2023-10-23T18:45:43.147Z,93.58
2023-10-23T18:48:12.274Z,93.28
2023-10-23T18:50:44.713Z,92.70
2023-10-23T18:53:15.325Z,92.37
2023-10-23T18:55:42.106Z,92.38
2023-10-23T18:58:09.002Z,92.13
2023-10-23T19:00:35.888Z,91.71
2023-10-23T19:03:02.630Z,92.24
2023-10-23T19:05:30.614Z,91.43
2023-10-23T19:07:57.226Z,92.20
2023-10-23T19:10:23.853Z,92.22
2023-10-23T19:12:50.531Z,92.07
2023-10-23T19:15:17.182Z,91.82
2023-10-23T19:17:43.941Z,92.33
2023-10-23T19:20:11.462Z,92.43
2023-10-23T19:22:40.330Z,91.96
2023-10-23T19:25:08.124Z,92.37
2023-10-23T19:27:35.349Z,91.97
2023-10-23T19:30:02.013Z,92.45
2023-10-23T19:32:31.505Z,92.03
2023-10-23T19:34:58.672Z,91.88
2023-10-23T19:37:25.915Z,91.78
2023-10-23T19:39:59.371Z,91.97
2023-10-23T19:42:27.202Z,91.73
2023-10-23T19:44:54.324Z,91.56
2023-10-23T19:47:22.370Z,90.94
2023-10-23T19:49:49.694Z,91.48
2023-10-23T19:52:16.165Z,91.29
2023-10-23T19:54:45.038Z,90.81
2023-10-23T19:57:18.418Z,90.62
2023-10-23T19:59:46.058Z,90.20
2023-10-23T20:02:12.759Z,90.35
2023-10-23T20:04:39.602Z,90.62
2023-10-23T20:07:07.250Z,90.21
2023-10-23T20:09:33.958Z,90.10
2023-10-23T20:12:00.620Z,89.94
2023-10-23T20:14:28.680Z,89.48
2023-10-23T20:16:56.841Z,89.50
2023-10-23T20:19:23.715Z,89.64
2023-10-23T20:21:50.440Z,89.38
2023-10-23T20:24:17.080Z,89.49
2023-10-23T20:26:44.097Z,88.77
2023-10-23T20:29:10.756Z,89.12
2023-10-23T20:31:38.788Z,89.61
2023-10-23T20:34:05.561Z,89.42
2023-10-23T20:36:34.253Z,88.77
2023-10-23T20:39:00.874Z,89.37
2023-10-23T20:41:27.837Z,89.23
2023-10-23T20:43:55.255Z,89.52
2023-10-23T20:46:21.952Z,89.28
2023-10-23T20:48:50.033Z,89.91
2023-10-23T20:51:18.210Z,89.55
2023-10-23T20:53:44.878Z,89.68
2023-10-23T20:56:11.538Z,89.24
2023-10-23T20:58:38.304Z,89.22
2023-10-23T21:01:06.104Z,89.21
2023-10-23T21:03:32.960Z,89.12
2023-10-23T21:06:02.181Z,89.48
2023-10-23T21:08:28.934Z,89.24
2023-10-23T21:10:55.556Z,89.19
2023-10-23T21:13:22.268Z,89.09
2023-10-23T21:15:48.989Z,89.61
2023-10-23T21:18:15.994Z,89.57
2023-10-23T21:20:42.853Z,89.68
2023-10-23T21:23:11.004Z,89.75
2023-10-23T21:25:37.722Z,89.49
2023-10-23T21:28:04.864Z,89.46
2023-10-23T21:30:31.514Z,89.28
2023-10-23T21:32:58.381Z,89.56
2023-10-23T21:35:25.304Z,88.29
2023-10-23T21:37:51.977Z,89.12
2023-10-23T21:40:25.980Z,88.84
2023-10-23T21:42:55.978Z,88.96
2023-10-23T21:45:22.738Z,88.82
2023-10-23T21:47:49.687Z,88.87
2023-10-23T21:50:16.681Z,89.20
2023-10-23T21:52:43.959Z,88.63
2023-10-23T21:55:18.959Z,88.64
2023-10-23T21:57:49.204Z,87.93
2023-10-23T22:00:16.938Z,88.11
2023-10-23T22:03:01.596Z,87.98
2023-10-23T22:05:33.366Z,87.73
2023-10-23T22:08:05.206Z,88.16
2023-10-23T22:10:32.543Z,88.60
2023-10-23T22:13:01.160Z,87.65
2023-10-23T22:15:27.810Z,87.59
2023-10-23T22:17:54.541Z,87.62
2023-10-23T22:20:21.506Z,87.31
2023-10-23T22:22:48.997Z,87.12
2023-10-23T22:25:16.083Z,86.96
2023-10-23T22:27:47.968Z,87.52
2023-10-23T22:30:17.738Z,86.79
2023-10-23T22:32:44.408Z,87.66
2023-10-23T22:35:11.073Z,86.87
2023-10-23T22:38:01.043Z,86.96
2023-10-23T22:40:24.469Z,86.88
2023-10-23T22:42:51.949Z,87.33
2023-10-23T22:45:20.106Z,86.74
2023-10-23T22:47:46.806Z,86.93
2023-10-23T22:50:14.340Z,87.37
2023-10-23T22:52:41.646Z,86.56
2023-10-23T22:55:10.017Z,86.70
2023-10-23T22:57:38.165Z,85.72
2023-10-23T23:00:05.550Z,86.61
2023-10-23T23:02:34.321Z,86.75
2023-10-23T23:05:02.844Z,86.26
2023-10-23T23:07:30.437Z,85.95
2023-10-23T23:09:57.735Z,86.00
2023-10-23T23:12:25.165Z,85.67
2023-10-23T23:14:53.845Z,85.68
2023-10-23T23:17:21.322Z,85.66
2023-10-23T23:19:51.956Z,84.92
2023-10-23T23:22:18.971Z,84.94
2023-10-23T23:24:45.644Z,84.75
2023-10-23T23:27:12.292Z,84.91
2023-10-23T23:29:38.927Z,84.62
2023-10-23T23:32:05.638Z,85.39
2023-10-23T23:34:33.221Z,84.74
2023-10-23T23:37:01.262Z,85.00
2023-10-23T23:39:27.884Z,85.65
2023-10-23T23:41:54.538Z,85.01
2023-10-23T23:44:21.194Z,85.35
2023-10-23T23:46:47.961Z,85.47
2023-10-23T23:49:15.236Z,85.09
2023-10-23T23:51:50.834Z,85.29
2023-10-23T23:54:20.392Z,85.30
2023-10-23T23:56:47.063Z,85.20
2023-10-23T23:59:13.716Z,85.67
